createdAt,value
2022-11-23T00:00:00.642Z,3.47
2022-11-23T00:05:03.640Z,3.35
2022-11-23T00:10:07.338Z,2.40
2022-11-23T00:15:14.435Z,2.35
2022-11-23T00:20:18.074Z,1.50
2022-11-23T00:25:21.098Z,2.55
2022-11-23T00:30:25.438Z,2.42
2022-11-23T00:35:28.464Z,1.58
2022-11-23T00:40:31.443Z,1.45
2022-11-23T00:45:35.781Z,2.30
2022-11-23T00:50:38.741Z,1.58
2022-11-23T00:55:41.735Z,1.58
2022-11-23T01:00:46.106Z,1.65
2022-11-23T01:05:49.088Z,0.80
2022-11-23T01:10:52.077Z,1.58
2022-11-23T01:15:56.378Z,0.98
2022-11-23T01:21:01.805Z,1.65
2022-11-23T01:26:09.598Z,1.60
2022-11-23T01:31:15.873Z,1.38
2022-11-23T01:36:21.530Z,0.98
2022-11-23T01:41:26.628Z,1.83
2022-11-23T01:46:31.052Z,1.42
2022-11-23T01:51:38.011Z,1.92
2022-11-23T01:56:45.439Z,0.80
2022-11-23T02:01:49.849Z,1.42
2022-11-23T02:06:54.152Z,2.78
2022-11-23T02:11:57.281Z,1.52
2022-11-23T02:17:01.670Z,2.47
2022-11-23T02:22:08.218Z,0.82
2022-11-23T02:27:12.750Z,1.23
2022-11-23T02:32:23.068Z,1.60
2022-11-23T02:37:26.802Z,1.40
2022-11-23T02:42:32.902Z,1.25
2022-11-23T02:47:35.917Z,0.88
2022-11-23T02:52:38.882Z,0.73
2022-11-23T02:57:43.267Z,1.45
2022-11-23T03:02:46.875Z,0.77
2022-11-23T03:07:49.935Z,1.20
2022-11-23T03:12:57.114Z,0.73
2022-11-23T03:18:00.118Z,1.70
2022-11-23T03:23:03.128Z,1.52
2022-11-23T03:28:07.666Z,0.60
2022-11-23T03:33:10.602Z,0.52
2022-11-23T03:38:13.808Z,0.52
2022-11-23T03:43:18.167Z,1.23
2022-11-23T03:48:21.198Z,2.80
2022-11-23T03:53:24.246Z,0.30
2022-11-23T03:58:28.681Z,0.60
2022-11-23T04:03:31.642Z,1.50
2022-11-23T04:08:34.610Z,0.95
2022-11-23T04:13:39.013Z,1.33
2022-11-23T04:18:42.020Z,1.25
2022-11-23T04:23:44.993Z,0.20
2022-11-23T04:28:49.312Z,0.40
2022-11-23T04:33:52.349Z,2.47
2022-11-23T04:38:55.791Z,0.45
2022-11-23T04:44:00.206Z,1.42
2022-11-23T04:49:03.209Z,0.88
2022-11-23T04:54:06.729Z,1.08
2022-11-23T04:59:11.158Z,0.60
2022-11-23T05:04:17.763Z,0.60
2022-11-23T05:09:21.194Z,0.30
2022-11-23T05:14:25.543Z,0.82
2022-11-23T05:19:28.480Z,0.60
2022-11-23T05:24:31.490Z,0.68
2022-11-23T05:29:35.926Z,1.40
2022-11-23T05:34:38.869Z,1.10
2022-11-23T05:39:41.845Z,1.10
2022-11-23T05:44:46.165Z,0.50
2022-11-23T05:49:49.360Z,1.23
2022-11-23T05:54:52.386Z,2.42
2022-11-23T05:59:56.700Z,0.93
2022-11-23T06:04:59.737Z,1.50
2022-11-23T06:10:03.402Z,2.35
2022-11-23T06:15:08.935Z,1.55
2022-11-23T06:20:12.419Z,2.50
2022-11-23T06:25:15.478Z,1.20
2022-11-23T06:30:19.956Z,2.78
2022-11-23T06:35:22.991Z,1.70
2022-11-23T06:40:25.952Z,1.58
2022-11-23T06:45:30.380Z,3.25
2022-11-23T06:50:33.557Z,3.42
2022-11-23T06:55:36.542Z,6.65
2022-11-23T07:00:40.837Z,5.90
2022-11-23T07:05:43.841Z,5.40
2022-11-23T07:10:46.929Z,4.55
2022-11-23T07:15:51.200Z,4.20
2022-11-23T07:20:54.425Z,5.18
2022-11-23T07:25:57.469Z,4.82
2022-11-23T07:31:01.841Z,5.60
2022-11-23T07:36:05.510Z,3.45
2022-11-23T07:41:08.822Z,5.88
2022-11-23T07:46:13.226Z,4.25
2022-11-23T07:51:19.494Z,4.38
2022-11-23T07:56:22.523Z,3.28
2022-11-23T08:01:27.069Z,5.55
2022-11-23T08:06:30.424Z,2.58
2022-11-23T08:11:33.401Z,4.45
2022-11-23T08:16:37.785Z,4.13
2022-11-23T08:21:40.761Z,1.63
2022-11-23T08:26:43.737Z,5.82
2022-11-23T08:31:48.162Z,3.92
2022-11-23T08:36:51.146Z,5.82
2022-11-23T08:41:54.142Z,3.88
2022-11-23T08:46:58.488Z,2.90
2022-11-23T08:52:01.519Z,3.17
2022-11-23T08:57:04.506Z,2.22
2022-11-23T09:02:11.236Z,3.50
2022-11-23T09:07:14.262Z,8.20
2022-11-23T09:12:17.380Z,5.53
2022-11-23T09:17:21.735Z,2.58
2022-11-23T09:22:24.669Z,2.78
2022-11-23T09:27:27.718Z,5.97
2022-11-23T09:32:33.388Z,7.15
2022-11-23T09:37:36.504Z,4.88
2022-11-23T09:43:01.054Z,3.88
2022-11-23T09:48:35.117Z,2.47
2022-11-23T09:53:43.830Z,6.82
2022-11-23T09:58:47.165Z,4.05
2022-11-23T10:03:52.054Z,5.93
2022-11-23T10:09:18.952Z,5.57
2022-11-23T10:14:44.706Z,4.90
2022-11-23T10:20:05.057Z,5.00
2022-11-23T10:25:16.563Z,6.38
2022-11-23T10:30:20.914Z,7.72
2022-11-23T10:35:29.777Z,3.15
2022-11-23T10:40:32.889Z,3.80
2022-11-23T10:45:35.902Z,3.90
2022-11-23T10:50:41.372Z,2.53
2022-11-23T10:55:50.214Z,4.15
2022-11-23T11:01:00.570Z,2.33
2022-11-23T11:06:10.187Z,2.65
2022-11-23T11:11:25.162Z,6.20
2022-11-23T11:16:31.033Z,5.75
2022-11-23T11:21:38.424Z,2.10
2022-11-23T11:26:50.048Z,3.03
2022-11-23T11:31:59.456Z,6.15
2022-11-23T11:37:12.090Z,4.72
2022-11-23T11:42:19.838Z,2.70
2022-11-23T11:47:31.197Z,2.42
2022-11-23T11:52:39.829Z,2.30
2022-11-23T11:57:48.541Z,4.18
2022-11-23T12:03:02.053Z,2.30
2022-11-23T12:08:12.562Z,2.17
2022-11-23T12:13:18.553Z,3.47
2022-11-23T12:18:51.369Z,2.85
2022-11-23T12:24:06.614Z,2.63
2022-11-23T12:29:31.586Z,2.30
2022-11-23T12:34:57.999Z,2.42
2022-11-23T12:40:26.578Z,2.47
2022-11-23T12:45:55.661Z,2.95
2022-11-23T12:51:09.498Z,3.72
2022-11-23T12:56:25.937Z,3.63
2022-11-23T13:01:32.644Z,3.80
2022-11-23T13:07:26.802Z,2.88
2022-11-23T13:12:44.709Z,1.80
2022-11-23T13:17:55.725Z,2.97
2022-11-23T13:23:01.453Z,1.17
2022-11-23T13:28:26.939Z,1.58
2022-11-23T13:33:38.710Z,1.42
2022-11-23T13:38:43.826Z,1.80
2022-11-23T13:43:48.330Z,1.40
2022-11-23T13:48:57.653Z,4.25
2022-11-23T13:54:03.515Z,3.38
2022-11-23T13:59:30.778Z,2.20
2022-11-23T14:04:35.870Z,2.30
2022-11-23T14:09:46.342Z,1.42
2022-11-23T14:14:57.472Z,1.13
2022-11-23T14:20:17.069Z,1.20
2022-11-23T14:25:40.408Z,1.50
2022-11-23T14:30:57.250Z,1.27
2022-11-23T14:36:12.226Z,2.78
2022-11-23T14:41:19.206Z,1.65
2022-11-23T14:46:25.479Z,0.80
2022-11-23T14:51:29.675Z,0.70
2022-11-23T14:56:35.140Z,1.92
2022-11-23T15:01:42.156Z,2.95
2022-11-23T15:06:48.759Z,0.82
2022-11-23T15:11:51.930Z,0.50
2022-11-23T15:16:56.365Z,1.73
2022-11-23T15:22:00.934Z,1.35
2022-11-23T15:27:12.146Z,1.30
2022-11-23T15:32:31.569Z,0.93
2022-11-23T15:37:42.130Z,1.02
2022-11-23T15:42:46.272Z,2.40
2022-11-23T15:47:50.669Z,2.40
2022-11-23T15:52:53.801Z,1.80
2022-11-23T15:57:57.895Z,1.48
2022-11-23T16:03:28.179Z,0.85
2022-11-23T16:08:35.436Z,1.55
2022-11-23T16:13:40.308Z,1.60
2022-11-23T16:18:47.881Z,1.67
2022-11-23T16:23:54.205Z,1.27
2022-11-23T16:28:58.735Z,2.10
2022-11-23T16:34:03.131Z,3.55
2022-11-23T16:39:06.124Z,57.75
2022-11-23T16:44:09.150Z,32.92
2022-11-23T16:49:18.119Z,29.48
2022-11-23T16:54:24.780Z,26.20
2022-11-23T16:59:28.493Z,24.70
2022-11-23T17:04:33.158Z,20.98
2022-11-23T17:09:36.591Z,18.85
2022-11-23T17:14:40.539Z,17.80
2022-11-23T17:19:48.096Z,16.63
2022-11-23T17:24:52.686Z,15.77
2022-11-23T17:29:59.662Z,15.00
2022-11-23T17:35:04.261Z,15.32
2022-11-23T17:40:14.141Z,14.77
2022-11-23T17:45:17.340Z,13.45
2022-11-23T17:50:21.765Z,14.02
2022-11-23T17:55:25.134Z,12.93
2022-11-23T18:00:30.329Z,12.23
2022-11-23T18:05:34.728Z,12.13
2022-11-23T18:10:37.757Z,11.55
2022-11-23T18:15:40.734Z,11.80
2022-11-23T18:20:45.126Z,10.57
2022-11-23T18:25:48.285Z,10.65
2022-11-23T18:30:51.275Z,10.00
2022-11-23T18:35:58.169Z,9.68
2022-11-23T18:41:05.288Z,9.65
2022-11-23T18:46:10.208Z,9.10
2022-11-23T18:51:14.653Z,9.70
2022-11-23T18:56:18.013Z,8.77
2022-11-23T19:01:23.145Z,8.63
2022-11-23T19:06:27.578Z,8.95
2022-11-23T19:11:30.578Z,8.23
2022-11-23T19:16:33.607Z,8.50
2022-11-23T19:21:37.995Z,8.43
2022-11-23T19:26:40.977Z,7.78
2022-11-23T19:31:43.998Z,7.60
2022-11-23T19:36:48.422Z,7.43
2022-11-23T19:41:51.431Z,7.72
2022-11-23T19:46:54.573Z,7.30
2022-11-23T19:51:59.045Z,6.70
2022-11-23T19:57:02.130Z,7.07
2022-11-23T20:02:05.201Z,6.80
2022-11-23T20:07:12.367Z,6.03
2022-11-23T20:12:15.483Z,6.70
2022-11-23T20:17:18.686Z,6.28
2022-11-23T20:22:23.049Z,6.45
2022-11-23T20:27:26.095Z,6.20
2022-11-23T20:32:29.091Z,6.03
2022-11-23T20:37:35.158Z,5.35
2022-11-23T20:42:38.141Z,5.78
2022-11-23T20:47:41.603Z,5.32
2022-11-23T20:52:46.065Z,5.50
2022-11-23T20:57:49.089Z,5.78
2022-11-23T21:02:52.985Z,5.45
2022-11-23T21:07:57.504Z,4.72
2022-11-23T21:13:17.785Z,5.65
2022-11-23T21:18:20.795Z,16.85
2022-11-23T21:23:25.279Z,22.02
2022-11-23T21:28:28.242Z,30.05
2022-11-23T21:33:31.283Z,24.67
2022-11-23T21:38:38.508Z,20.77
2022-11-23T21:43:41.540Z,20.00
2022-11-23T21:48:44.713Z,17.90
2022-11-23T21:53:49.276Z,16.40
2022-11-23T21:58:52.365Z,13.35
2022-11-23T22:03:57.226Z,15.68
2022-11-23T22:09:01.667Z,14.18
2022-11-23T22:14:07.272Z,12.02
2022-11-23T22:19:12.198Z,12.07
2022-11-23T22:24:18.274Z,10.80
2022-11-23T22:29:22.053Z,10.18
2022-11-23T22:34:26.172Z,12.07
2022-11-23T22:39:30.796Z,10.60
2022-11-23T22:44:34.265Z,9.35
2022-11-23T22:49:38.191Z,8.75
2022-11-23T22:54:42.502Z,8.73
2022-11-23T22:59:45.479Z,10.60
2022-11-23T23:04:48.578Z,9.10
2022-11-23T23:09:53.469Z,9.95
2022-11-23T23:14:56.593Z,8.10
2022-11-23T23:19:59.531Z,7.47
2022-11-23T23:25:07.632Z,7.32
2022-11-23T23:30:11.781Z,7.32
2022-11-23T23:35:15.151Z,6.22
2022-11-23T23:40:19.693Z,7.38
2022-11-23T23:45:22.884Z,6.32
2022-11-23T23:50:25.919Z,5.50
2022-11-23T23:55:30.296Z,5.30
